sensor_id;sensor_type;location;lat;lon;timestamp;pressure;altitude;pressure_sealevel;temperature;humidity
75513;BME280;64090;49.770;18.760;2023-04-30T01:07:23;97589.02;;;8.72;95.54
75513;BME280;64090;49.770;18.760;2023-04-30T06:45:32;97955.40;;;9.54;84.82
75513;BME280;64090;49.770;18.760;2023-04-30T06:49:50;97957.40;;;9.63;86.13
75513;BME280;64090;49.770;18.760;2023-04-30T06:53:57;97956.93;;;9.67;85.18
75513;BME280;64090;49.770;18.760;2023-04-30T07:11:35;97976.95;;;9.82;82.03
75513;BME280;64090;49.770;18.760;2023-04-30T07:19:55;97978.11;;;10.16;83.77
75513;BME280;64090;49.770;18.760;2023-04-30T07:23:52;97983.60;;;10.41;82.84
75513;BME280;64090;49.770;18.760;2023-04-30T07:32:23;97981.51;;;11.06;79.86
75513;BME280;64090;49.770;18.760;2023-04-30T07:36:25;97983.63;;;11.29;77.71
75513;BME280;64090;49.770;18.760;2023-04-30T07:40:52;97985.73;;;11.60;77.14
75513;BME280;64090;49.770;18.760;2023-04-30T07:49:29;97991.16;;;11.78;76.65
75513;BME280;64090;49.770;18.760;2023-04-30T07:53:09;97993.55;;;11.63;73.32
75513;BME280;64090;49.770;18.760;2023-04-30T07:57:36;97995.02;;;11.60;73.82
75513;BME280;64090;49.770;18.760;2023-04-30T08:01:26;97994.98;;;12.23;73.86
75513;BME280;64090;49.770;18.760;2023-04-30T08:05:30;97992.84;;;13.28;72.52
75513;BME280;64090;49.770;18.760;2023-04-30T08:08:55;97997.38;;;13.88;73.71
75513;BME280;64090;49.770;18.760;2023-04-30T08:12:26;98002.70;;;14.29;70.22
75513;BME280;64090;49.770;18.760;2023-04-30T08:15:58;98001.71;;;14.08;67.02
75513;BME280;64090;49.770;18.760;2023-04-30T08:20:01;97995.69;;;13.89;67.80
75513;BME280;64090;49.770;18.760;2023-04-30T08:23:35;97999.20;;;13.87;67.09
75513;BME280;64090;49.770;18.760;2023-04-30T08:27:47;98002.70;;;13.73;65.82
75513;BME280;64090;49.770;18.760;2023-04-30T08:31:18;98008.35;;;13.31;63.21
75513;BME280;64090;49.770;18.760;2023-04-30T08:35:01;98013.42;;;12.97;66.03
75513;BME280;64090;49.770;18.760;2023-04-30T08:38:43;98006.38;;;13.08;64.56
75513;BME280;64090;49.770;18.760;2023-04-30T08:42:14;98004.23;;;13.16;63.51
75513;BME280;64090;49.770;18.760;2023-04-30T08:45:44;98004.21;;;12.89;63.41
75513;BME280;64090;49.770;18.760;2023-04-30T08:49:22;98005.23;;;12.68;63.55
75513;BME280;64090;49.770;18.760;2023-04-30T08:53:06;98001.23;;;12.52;62.82
75513;BME280;64090;49.770;18.760;2023-04-30T08:56:50;98006.90;;;12.35;63.27
75513;BME280;64090;49.770;18.760;2023-04-30T09:00:31;98006.95;;;12.32;64.23
75513;BME280;64090;49.770;18.760;2023-04-30T09:04:19;98013.05;;;12.25;64.97
75513;BME280;64090;49.770;18.760;2023-04-30T09:08:11;98013.11;;;12.30;65.06
75513;BME280;64090;49.770;18.760;2023-04-30T09:11:52;98012.80;;;12.49;64.37
75513;BME280;64090;49.770;18.760;2023-04-30T09:15:31;98017.42;;;12.58;64.67
75513;BME280;64090;49.770;18.760;2023-04-30T09:19:24;98016.13;;;12.51;64.05
75513;BME280;64090;49.770;18.760;2023-04-30T09:23:10;98015.44;;;12.14;63.85
75513;BME280;64090;49.770;18.760;2023-04-30T09:31:39;98015.36;;;11.95;65.58
75513;BME280;64090;49.770;18.760;2023-04-30T09:36:07;98012.17;;;12.28;65.94
75513;BME280;64090;49.770;18.760;2023-04-30T09:43:39;98010.09;;;12.89;65.16
75513;BME280;64090;49.770;18.760;2023-04-30T09:47:26;98016.96;;;13.17;63.20
75513;BME280;64090;49.770;18.760;2023-04-30T09:50:57;98015.73;;;13.21;61.49
75513;BME280;64090;49.770;18.760;2023-04-30T09:54:34;98010.88;;;13.30;60.55
75513;BME280;64090;49.770;18.760;2023-04-30T09:58:26;98005.39;;;13.84;61.28
75513;BME280;64090;49.770;18.760;2023-04-30T10:02:07;98004.45;;;14.50;59.92
75513;BME280;64090;49.770;18.760;2023-04-30T10:09:38;98000.67;;;14.38;58.71
75513;BME280;64090;49.770;18.760;2023-04-30T10:13:09;97997.37;;;14.30;58.82
75513;BME280;64090;49.770;18.760;2023-04-30T10:17:01;97993.70;;;14.19;59.17
75513;BME280;64090;49.770;18.760;2023-04-30T10:21:25;97987.25;;;13.90;58.57
75513;BME280;64090;49.770;18.760;2023-04-30T10:25:22;97979.66;;;13.79;59.31
75513;BME280;64090;49.770;18.760;2023-04-30T10:28:54;97976.89;;;14.40;58.61
75513;BME280;64090;49.770;18.760;2023-04-30T10:32:23;97979.18;;;14.70;57.33
75513;BME280;64090;49.770;18.760;2023-04-30T10:36:12;97978.72;;;14.39;56.24
75513;BME280;64090;49.770;18.760;2023-04-30T10:39:38;97973.95;;;14.35;57.97
75513;BME280;64090;49.770;18.760;2023-04-30T10:43:06;97970.95;;;14.52;55.59
75513;BME280;64090;49.770;18.760;2023-04-30T10:47:08;97969.19;;;14.76;57.81
75513;BME280;64090;49.770;18.760;2023-04-30T10:50:40;97971.02;;;14.88;54.22
75513;BME280;64090;49.770;18.760;2023-04-30T10:54:09;97974.03;;;14.87;52.72
75513;BME280;64090;49.770;18.760;2023-04-30T10:57:42;97967.17;;;15.03;52.53
75513;BME280;64090;49.770;18.760;2023-04-30T11:01:22;97955.67;;;15.54;51.85
75513;BME280;64090;49.770;18.760;2023-04-30T11:09:39;97962.80;;;15.47;50.16
75513;BME280;64090;49.770;18.760;2023-04-30T11:13:23;97956.17;;;15.61;50.25
75513;BME280;64090;49.770;18.760;2023-04-30T11:16:51;97953.86;;;15.56;48.41
75513;BME280;64090;49.770;18.760;2023-04-30T11:20:19;97963.66;;;15.23;48.85
75513;BME280;64090;49.770;18.760;2023-04-30T11:23:46;97964.54;;;14.82;50.39
75513;BME280;64090;49.770;18.760;2023-04-30T11:27:22;97963.29;;;14.98;51.55
75513;BME280;64090;49.770;18.760;2023-04-30T11:31:13;97961.66;;;15.08;50.53
75513;BME280;64090;49.770;18.760;2023-04-30T11:34:57;97969.20;;;15.05;49.24
75513;BME280;64090;49.770;18.760;2023-04-30T11:38:45;97962.81;;;15.56;48.66
75513;BME280;64090;49.770;18.760;2023-04-30T11:42:18;97959.02;;;15.73;47.95
75513;BME280;64090;49.770;18.760;2023-04-30T11:46:23;97962.58;;;15.69;48.99
75513;BME280;64090;49.770;18.760;2023-04-30T11:49:59;97956.05;;;15.75;47.68
75513;BME280;64090;49.770;18.760;2023-04-30T11:53:39;97963.85;;;16.07;45.66
75513;BME280;64090;49.770;18.760;2023-04-30T11:57:14;97959.95;;;16.13;45.11
75513;BME280;64090;49.770;18.760;2023-04-30T12:00:58;97964.81;;;15.77;44.88
75513;BME280;64090;49.770;18.760;2023-04-30T12:04:23;97963.40;;;15.40;47.39
75513;BME280;64090;49.770;18.760;2023-04-30T12:08:18;97961.70;;;14.99;47.92
75513;BME280;64090;49.770;18.760;2023-04-30T12:11:59;97959.27;;;15.27;47.85
75513;BME280;64090;49.770;18.760;2023-04-30T12:15:32;97951.44;;;15.99;47.51
75513;BME280;64090;49.770;18.760;2023-04-30T12:18:59;97953.64;;;16.48;46.55
75513;BME280;64090;49.770;18.760;2023-04-30T12:22:31;97952.81;;;16.34;46.05
75513;BME280;64090;49.770;18.760;2023-04-30T12:26:36;97951.40;;;15.86;44.45
75513;BME280;64090;49.770;18.760;2023-04-30T12:30:19;97949.88;;;15.55;44.59
75513;BME280;64090;49.770;18.760;2023-04-30T12:33:54;97945.98;;;15.73;46.02
75513;BME280;64090;49.770;18.760;2023-04-30T12:37:21;97943.42;;;15.88;45.85
75513;BME280;64090;49.770;18.760;2023-04-30T12:40:48;97945.48;;;15.78;46.41
75513;BME280;64090;49.770;18.760;2023-04-30T12:44:41;97942.39;;;15.83;46.43
75513;BME280;64090;49.770;18.760;2023-04-30T12:48:46;97931.30;;;15.81;44.31
75513;BME280;64090;49.770;18.760;2023-04-30T12:52:17;97933.12;;;15.67;45.60
75513;BME280;64090;49.770;18.760;2023-04-30T12:59:56;97931.52;;;14.79;44.52
75513;BME280;64090;49.770;18.760;2023-04-30T13:04:03;97927.87;;;14.68;45.67
75513;BME280;64090;49.770;18.760;2023-04-30T13:07:51;97922.11;;;14.81;45.70
75513;BME280;64090;49.770;18.760;2023-04-30T13:11:22;97922.75;;;15.02;44.74
75513;BME280;64090;49.770;18.760;2023-04-30T13:15:18;97911.19;;;15.19;43.70
75513;BME280;64090;49.770;18.760;2023-04-30T13:19:03;97911.49;;;15.41;44.72
75513;BME280;64090;49.770;18.760;2023-04-30T13:22:32;97909.81;;;15.59;44.26
75513;BME280;64090;49.770;18.760;2023-04-30T13:26:04;97912.09;;;15.62;43.93
75513;BME280;64090;49.770;18.760;2023-04-30T13:29:46;97911.18;;;15.88;43.15
75513;BME280;64090;49.770;18.760;2023-04-30T13:33:34;97911.52;;;15.99;42.92
75513;BME280;64090;49.770;18.760;2023-04-30T13:37:05;97912.88;;;16.02;42.90
75513;BME280;64090;49.770;18.760;2023-04-30T13:41:03;97914.38;;;15.66;42.51
75513;BME280;64090;49.770;18.760;2023-04-30T13:44:50;97909.56;;;15.19;41.05
75513;BME280;64090;49.770;18.760;2023-04-30T13:48:26;97909.71;;;15.14;42.62
75513;BME280;64090;49.770;18.760;2023-04-30T13:52:13;97900.05;;;15.35;42.36
75513;BME280;64090;49.770;18.760;2023-04-30T13:55:43;97902.25;;;15.51;41.80
75513;BME280;64090;49.770;18.760;2023-04-30T13:59:29;97908.59;;;15.59;41.48
75513;BME280;64090;49.770;18.760;2023-04-30T14:03:19;97912.80;;;15.72;41.93
75513;BME280;64090;49.770;18.760;2023-04-30T14:07:05;97914.98;;;15.79;41.15
75513;BME280;64090;49.770;18.760;2023-04-30T14:10:34;97910.94;;;15.82;40.19
75513;BME280;64090;49.770;18.760;2023-04-30T14:14:07;97906.80;;;15.70;40.27
75513;BME280;64090;49.770;18.760;2023-04-30T14:17:41;97905.53;;;15.66;39.76
75513;BME280;64090;49.770;18.760;2023-04-30T14:21:32;97905.99;;;15.66;39.87
75513;BME280;64090;49.770;18.760;2023-04-30T14:25:38;97902.31;;;15.62;40.58
75513;BME280;64090;49.770;18.760;2023-04-30T14:29:53;97901.84;;;15.43;40.50
75513;BME280;64090;49.770;18.760;2023-04-30T14:33:20;97897.70;;;15.35;40.21
75513;BME280;64090;49.770;18.760;2023-04-30T14:36:58;97901.50;;;15.40;40.37
75513;BME280;64090;49.770;18.760;2023-04-30T14:40:27;97897.55;;;15.32;40.62
75513;BME280;64090;49.770;18.760;2023-04-30T14:44:16;97901.09;;;15.34;40.77
75513;BME280;64090;49.770;18.760;2023-04-30T14:48:03;97899.66;;;15.44;40.52
75513;BME280;64090;49.770;18.760;2023-04-30T14:51:32;97903.83;;;15.58;40.83
75513;BME280;64090;49.770;18.760;2023-04-30T14:55:08;97904.27;;;15.68;40.40
75513;BME280;64090;49.770;18.760;2023-04-30T14:58:57;97899.86;;;15.78;41.11
75513;BME280;64090;49.770;18.760;2023-04-30T15:03:01;97898.09;;;15.71;40.16
75513;BME280;64090;49.770;18.760;2023-04-30T15:06:47;97899.87;;;15.60;40.49
75513;BME280;64090;49.770;18.760;2023-04-30T15:10:23;97892.42;;;15.63;40.78
75513;BME280;64090;49.770;18.760;2023-04-30T15:14:05;97894.33;;;15.75;40.55
75513;BME280;64090;49.770;18.760;2023-04-30T15:18:13;97898.01;;;15.78;39.64
75513;BME280;64090;49.770;18.760;2023-04-30T15:22:00;97901.44;;;15.76;39.85
75513;BME280;64090;49.770;18.760;2023-04-30T15:26:03;97895.34;;;15.77;39.68
75513;BME280;64090;49.770;18.760;2023-04-30T15:30:08;97888.23;;;15.75;40.13
75513;BME280;64090;49.770;18.760;2023-04-30T15:34:00;97896.75;;;15.62;39.96
75513;BME280;64090;49.770;18.760;2023-04-30T15:37:38;97898.89;;;15.50;39.47
75513;BME280;64090;49.770;18.760;2023-04-30T15:41:12;97898.39;;;15.46;39.76
75513;BME280;64090;49.770;18.760;2023-04-30T15:45:09;97897.34;;;15.44;40.09
75513;BME280;64090;49.770;18.760;2023-04-30T15:49:07;97895.16;;;15.39;39.99
75513;BME280;64090;49.770;18.760;2023-04-30T15:52:42;97896.16;;;15.41;40.10
75513;BME280;64090;49.770;18.760;2023-04-30T15:56:31;97891.31;;;15.42;39.98
75513;BME280;64090;49.770;18.760;2023-04-30T16:00:33;97891.16;;;15.40;40.46
75513;BME280;64090;49.770;18.760;2023-04-30T16:04:19;97895.64;;;15.28;39.81
75513;BME280;64090;49.770;18.760;2023-04-30T16:08:04;97895.90;;;15.19;40.29
75513;BME280;64090;49.770;18.760;2023-04-30T16:11:32;97896.17;;;15.12;41.31
75513;BME280;64090;49.770;18.760;2023-04-30T16:15:05;97894.85;;;15.05;40.75
75513;BME280;64090;49.770;18.760;2023-04-30T16:18:49;97890.23;;;14.95;40.49
75513;BME280;64090;49.770;18.760;2023-04-30T16:22:50;97887.96;;;14.90;40.57
75513;BME280;64090;49.770;18.760;2023-04-30T16:26:48;97888.20;;;14.87;40.15
75513;BME280;64090;49.770;18.760;2023-04-30T16:30:34;97883.46;;;14.79;40.56
75513;BME280;64090;49.770;18.760;2023-04-30T16:34:19;97884.76;;;14.69;40.70
75513;BME280;64090;49.770;18.760;2023-04-30T16:45:53;97894.13;;;14.31;41.16
75513;BME280;64090;49.770;18.760;2023-04-30T16:49:58;97892.15;;;14.10;41.57
75513;BME280;64090;49.770;18.760;2023-04-30T16:53:59;97894.38;;;14.03;41.70
75513;BME280;64090;49.770;18.760;2023-04-30T16:57:51;97895.32;;;13.97;42.03
75513;BME280;64090;49.770;18.760;2023-04-30T17:01:46;97897.15;;;13.88;42.38
75513;BME280;64090;49.770;18.760;2023-04-30T17:06:07;97897.32;;;14.32;42.85
75513;BME280;64090;49.770;18.760;2023-04-30T17:09:39;97902.05;;;14.90;41.85
75513;BME280;64090;49.770;18.760;2023-04-30T17:13:26;97899.77;;;15.30;41.31
75513;BME280;64090;49.770;18.760;2023-04-30T17:17:47;97906.08;;;15.59;40.38
75513;BME280;64090;49.770;18.760;2023-04-30T17:22:12;97902.04;;;15.52;40.09
75513;BME280;64090;49.770;18.760;2023-04-30T17:26:06;97909.44;;;15.52;40.21
75513;BME280;64090;49.770;18.760;2023-04-30T17:29:58;97914.13;;;15.41;40.71
75513;BME280;64090;49.770;18.760;2023-04-30T17:38:09;97921.21;;;13.82;43.36
75513;BME280;64090;49.770;18.760;2023-04-30T18:27:04;97967.38;;;10.13;50.60
75513;BME280;64090;49.770;18.760;2023-04-30T18:44:29;97978.24;;;9.61;51.72
